sensor_id;sensor_type;location;lat;lon;timestamp;P1;durP1;ratioP1;P2;durP2;ratioP2
27666;SDS011;15074;50.940;5.282;2023-04-12T00:02:24;2.47;;;1.30;;
27666;SDS011;15074;50.940;5.282;2023-04-12T00:04:51;2.80;;;1.13;;
27666;SDS011;15074;50.940;5.282;2023-04-12T00:07:22;5.70;;;1.70;;
27666;SDS011;15074;50.940;5.282;2023-04-12T00:09:48;2.92;;;1.00;;
27666;SDS011;15074;50.940;5.282;2023-04-12T00:12:14;3.47;;;1.35;;
27666;SDS011;15074;50.940;5.282;2023-04-12T00:14:43;4.60;;;1.30;;
27666;SDS011;15074;50.940;5.282;2023-04-12T00:17:09;6.50;;;1.75;;
27666;SDS011;15074;50.940;5.282;2023-04-12T00:19:35;2.60;;;1.33;;
27666;SDS011;15074;50.940;5.282;2023-04-12T00:22:05;5.40;;;1.40;;
27666;SDS011;15074;50.940;5.282;2023-04-12T00:24:34;5.10;;;1.55;;
27666;SDS011;15074;50.940;5.282;2023-04-12T00:27:02;5.53;;;1.67;;
27666;SDS011;15074;50.940;5.282;2023-04-12T00:29:30;4.65;;;1.40;;
27666;SDS011;15074;50.940;5.282;2023-04-12T00:31:56;4.53;;;2.05;;
27666;SDS011;15074;50.940;5.282;2023-04-12T00:34:22;4.15;;;1.58;;
27666;SDS011;15074;50.940;5.282;2023-04-12T00:36:48;4.57;;;1.50;;
27666;SDS011;15074;50.940;5.282;2023-04-12T00:39:14;7.65;;;1.40;;
27666;SDS011;15074;50.940;5.282;2023-04-12T00:41:39;2.42;;;1.10;;
27666;SDS011;15074;50.940;5.282;2023-04-12T00:44:05;7.22;;;1.58;;
27666;SDS011;15074;50.940;5.282;2023-04-12T00:46:31;3.75;;;1.55;;
27666;SDS011;15074;50.940;5.282;2023-04-12T00:48:58;3.00;;;1.27;;
27666;SDS011;15074;50.940;5.282;2023-04-12T00:51:23;4.88;;;1.50;;
27666;SDS011;15074;50.940;5.282;2023-04-12T00:53:50;4.38;;;1.70;;
27666;SDS011;15074;50.940;5.282;2023-04-12T00:56:19;3.00;;;1.40;;
27666;SDS011;15074;50.940;5.282;2023-04-12T00:58:47;5.50;;;1.50;;
27666;SDS011;15074;50.940;5.282;2023-04-12T01:01:13;3.22;;;1.30;;
27666;SDS011;15074;50.940;5.282;2023-04-12T01:03:40;3.92;;;1.55;;
27666;SDS011;15074;50.940;5.282;2023-04-12T01:14:50;2.20;;;1.30;;
27666;SDS011;15074;50.940;5.282;2023-04-12T01:17:27;2.50;;;1.30;;
27666;SDS011;15074;50.940;5.282;2023-04-12T01:20:00;3.28;;;1.55;;
27666;SDS011;15074;50.940;5.282;2023-04-12T01:28:28;1.83;;;1.10;;
27666;SDS011;15074;50.940;5.282;2023-04-12T01:31:02;2.67;;;1.00;;
27666;SDS011;15074;50.940;5.282;2023-04-12T01:33:31;2.63;;;0.98;;
27666;SDS011;15074;50.940;5.282;2023-04-12T01:36:02;2.58;;;1.00;;
27666;SDS011;15074;50.940;5.282;2023-04-12T01:38:34;2.63;;;1.02;;
27666;SDS011;15074;50.940;5.282;2023-04-12T01:41:00;1.13;;;0.90;;
27666;SDS011;15074;50.940;5.282;2023-04-12T01:43:26;3.67;;;1.30;;
27666;SDS011;15074;50.940;5.282;2023-04-12T01:45:52;1.77;;;1.02;;
27666;SDS011;15074;50.940;5.282;2023-04-12T01:48:18;1.00;;;0.80;;
27666;SDS011;15074;50.940;5.282;2023-04-12T01:56:45;2.05;;;1.23;;
27666;SDS011;15074;50.940;5.282;2023-04-12T01:59:15;1.88;;;0.90;;
27666;SDS011;15074;50.940;5.282;2023-04-12T02:01:42;1.70;;;0.90;;
27666;SDS011;15074;50.940;5.282;2023-04-12T02:04:09;2.03;;;0.82;;
27666;SDS011;15074;50.940;5.282;2023-04-12T02:06:35;3.28;;;0.90;;
27666;SDS011;15074;50.940;5.282;2023-04-12T02:09:03;1.40;;;0.90;;
27666;SDS011;15074;50.940;5.282;2023-04-12T02:11:32;2.08;;;0.90;;
27666;SDS011;15074;50.940;5.282;2023-04-12T02:13:58;2.53;;;0.88;;
27666;SDS011;15074;50.940;5.282;2023-04-12T02:16:24;2.00;;;1.00;;
27666;SDS011;15074;50.940;5.282;2023-04-12T02:18:53;2.47;;;1.10;;
27666;SDS011;15074;50.940;5.282;2023-04-12T02:21:21;1.30;;;0.73;;
27666;SDS011;15074;50.940;5.282;2023-04-12T02:23:47;2.10;;;1.30;;
27666;SDS011;15074;50.940;5.282;2023-04-12T02:26:13;2.00;;;1.10;;
27666;SDS011;15074;50.940;5.282;2023-04-12T02:28:38;2.05;;;0.70;;
27666;SDS011;15074;50.940;5.282;2023-04-12T02:31:04;3.60;;;1.00;;
27666;SDS011;15074;50.940;5.282;2023-04-12T02:33:31;2.45;;;0.80;;
27666;SDS011;15074;50.940;5.282;2023-04-12T02:35:57;1.50;;;0.82;;
27666;SDS011;15074;50.940;5.282;2023-04-12T02:38:23;1.65;;;0.68;;
27666;SDS011;15074;50.940;5.282;2023-04-12T02:40:49;1.83;;;0.82;;
27666;SDS011;15074;50.940;5.282;2023-04-12T02:43:15;2.95;;;1.25;;
27666;SDS011;15074;50.940;5.282;2023-04-12T02:45:40;1.60;;;0.73;;
27666;SDS011;15074;50.940;5.282;2023-04-12T02:48:06;2.83;;;0.70;;
27666;SDS011;15074;50.940;5.282;2023-04-12T02:50:32;2.13;;;0.70;;
27666;SDS011;15074;50.940;5.282;2023-04-12T02:52:58;0.88;;;0.80;;
27666;SDS011;15074;50.940;5.282;2023-04-12T02:55:23;2.28;;;0.50;;
27666;SDS011;15074;50.940;5.282;2023-04-12T02:57:49;1.52;;;0.80;;
27666;SDS011;15074;50.940;5.282;2023-04-12T03:00:15;2.13;;;0.70;;
27666;SDS011;15074;50.940;5.282;2023-04-12T03:02:42;1.50;;;0.90;;
27666;SDS011;15074;50.940;5.282;2023-04-12T03:05:08;1.70;;;0.80;;
27666;SDS011;15074;50.940;5.282;2023-04-12T03:07:34;2.33;;;0.77;;
27666;SDS011;15074;50.940;5.282;2023-04-12T03:10:00;2.15;;;0.77;;
27666;SDS011;15074;50.940;5.282;2023-04-12T03:12:27;1.75;;;0.85;;
27666;SDS011;15074;50.940;5.282;2023-04-12T03:14:53;1.15;;;0.75;;
27666;SDS011;15074;50.940;5.282;2023-04-12T03:17:19;2.78;;;0.82;;
27666;SDS011;15074;50.940;5.282;2023-04-12T03:19:44;3.15;;;1.08;;
27666;SDS011;15074;50.940;5.282;2023-04-12T03:22:10;1.65;;;0.77;;
27666;SDS011;15074;50.940;5.282;2023-04-12T03:24:36;1.45;;;0.95;;
27666;SDS011;15074;50.940;5.282;2023-04-12T03:27:02;2.53;;;0.77;;
27666;SDS011;15074;50.940;5.282;2023-04-12T03:29:29;3.88;;;1.30;;
27666;SDS011;15074;50.940;5.282;2023-04-12T03:31:56;3.00;;;1.02;;
27666;SDS011;15074;50.940;5.282;2023-04-12T03:34:25;1.90;;;0.90;;
27666;SDS011;15074;50.940;5.282;2023-04-12T03:36:56;1.52;;;0.77;;
27666;SDS011;15074;50.940;5.282;2023-04-12T03:39:22;2.00;;;0.90;;
27666;SDS011;15074;50.940;5.282;2023-04-12T03:41:48;2.58;;;1.02;;
27666;SDS011;15074;50.940;5.282;2023-04-12T03:44:14;1.58;;;0.80;;
27666;SDS011;15074;50.940;5.282;2023-04-12T03:46:39;2.85;;;1.23;;
27666;SDS011;15074;50.940;5.282;2023-04-12T03:49:05;2.22;;;1.05;;
27666;SDS011;15074;50.940;5.282;2023-04-12T03:51:31;3.20;;;1.10;;
27666;SDS011;15074;50.940;5.282;2023-04-12T03:53:57;2.67;;;1.17;;
27666;SDS011;15074;50.940;5.282;2023-04-12T03:56:22;2.08;;;0.80;;
27666;SDS011;15074;50.940;5.282;2023-04-12T03:58:48;3.50;;;1.20;;
27666;SDS011;15074;50.940;5.282;2023-04-12T04:01:14;2.10;;;1.00;;
27666;SDS011;15074;50.940;5.282;2023-04-12T04:03:41;4.60;;;1.17;;
27666;SDS011;15074;50.940;5.282;2023-04-12T04:06:08;2.60;;;0.90;;
27666;SDS011;15074;50.940;5.282;2023-04-12T04:08:35;1.85;;;1.00;;
27666;SDS011;15074;50.940;5.282;2023-04-12T04:11:02;7.32;;;2.80;;
27666;SDS011;15074;50.940;5.282;2023-04-12T04:13:27;2.38;;;0.93;;
27666;SDS011;15074;50.940;5.282;2023-04-12T04:15:57;2.30;;;0.98;;
27666;SDS011;15074;50.940;5.282;2023-04-12T04:18:26;2.72;;;1.20;;
27666;SDS011;15074;50.940;5.282;2023-04-12T04:20:52;2.25;;;1.17;;
27666;SDS011;15074;50.940;5.282;2023-04-12T04:23:18;2.47;;;1.17;;
27666;SDS011;15074;50.940;5.282;2023-04-12T04:25:44;1.63;;;0.90;;
27666;SDS011;15074;50.940;5.282;2023-04-12T04:28:10;1.65;;;0.90;;
27666;SDS011;15074;50.940;5.282;2023-04-12T04:30:35;3.30;;;1.05;;
27666;SDS011;15074;50.940;5.282;2023-04-12T04:35:31;1.35;;;0.95;;
27666;SDS011;15074;50.940;5.282;2023-04-12T04:37:56;2.83;;;1.10;;
27666;SDS011;15074;50.940;5.282;2023-04-12T04:40:22;1.77;;;0.95;;
27666;SDS011;15074;50.940;5.282;2023-04-12T04:42:49;1.52;;;0.90;;
27666;SDS011;15074;50.940;5.282;2023-04-12T04:45:22;2.75;;;0.80;;
27666;SDS011;15074;50.940;5.282;2023-04-12T04:47:52;1.75;;;0.60;;
27666;SDS011;15074;50.940;5.282;2023-04-12T04:50:19;1.00;;;0.70;;
27666;SDS011;15074;50.940;5.282;2023-04-12T04:52:48;0.90;;;0.60;;
27666;SDS011;15074;50.940;5.282;2023-04-12T04:55:15;1.35;;;0.80;;
27666;SDS011;15074;50.940;5.282;2023-04-12T04:57:51;2.80;;;0.68;;
27666;SDS011;15074;50.940;5.282;2023-04-12T05:00:17;2.20;;;0.80;;
27666;SDS011;15074;50.940;5.282;2023-04-12T05:02:43;1.80;;;0.85;;
27666;SDS011;15074;50.940;5.282;2023-04-12T05:05:09;1.05;;;0.70;;
27666;SDS011;15074;50.940;5.282;2023-04-12T05:07:39;1.02;;;0.80;;
27666;SDS011;15074;50.940;5.282;2023-04-12T05:10:07;1.77;;;0.57;;
27666;SDS011;15074;50.940;5.282;2023-04-12T05:12:34;1.73;;;0.60;;
27666;SDS011;15074;50.940;5.282;2023-04-12T05:15:00;1.20;;;0.60;;
27666;SDS011;15074;50.940;5.282;2023-04-12T05:17:26;2.05;;;0.68;;
27666;SDS011;15074;50.940;5.282;2023-04-12T05:19:52;2.00;;;0.65;;
27666;SDS011;15074;50.940;5.282;2023-04-12T05:22:18;1.38;;;0.60;;
27666;SDS011;15074;50.940;5.282;2023-04-12T05:24:47;2.55;;;0.80;;
27666;SDS011;15074;50.940;5.282;2023-04-12T05:27:13;1.05;;;0.70;;
27666;SDS011;15074;50.940;5.282;2023-04-12T05:29:41;1.23;;;0.70;;
27666;SDS011;15074;50.940;5.282;2023-04-12T05:32:09;2.20;;;0.70;;
27666;SDS011;15074;50.940;5.282;2023-04-12T05:34:35;1.50;;;0.80;;
27666;SDS011;15074;50.940;5.282;2023-04-12T05:37:01;0.93;;;0.68;;
27666;SDS011;15074;50.940;5.282;2023-04-12T05:39:28;0.60;;;0.57;;
27666;SDS011;15074;50.940;5.282;2023-04-12T05:41:54;1.70;;;0.60;;
27666;SDS011;15074;50.940;5.282;2023-04-12T05:44:19;0.70;;;0.55;;
27666;SDS011;15074;50.940;5.282;2023-04-12T05:46:45;0.77;;;0.73;;
27666;SDS011;15074;50.940;5.282;2023-04-12T05:49:11;0.73;;;0.50;;
27666;SDS011;15074;50.940;5.282;2023-04-12T05:51:36;0.90;;;0.70;;
27666;SDS011;15074;50.940;5.282;2023-04-12T05:54:02;0.80;;;0.50;;
27666;SDS011;15074;50.940;5.282;2023-04-12T05:56:31;1.00;;;0.60;;
27666;SDS011;15074;50.940;5.282;2023-04-12T05:59:00;2.75;;;0.40;;
27666;SDS011;15074;50.940;5.282;2023-04-12T06:01:26;1.00;;;0.65;;
27666;SDS011;15074;50.940;5.282;2023-04-12T06:03:59;1.60;;;0.60;;
27666;SDS011;15074;50.940;5.282;2023-04-12T06:06:27;1.33;;;0.52;;
27666;SDS011;15074;50.940;5.282;2023-04-12T06:08:57;1.45;;;0.57;;
27666;SDS011;15074;50.940;5.282;2023-04-12T06:11:26;0.85;;;0.50;;
27666;SDS011;15074;50.940;5.282;2023-04-12T06:13:52;1.15;;;0.43;;
27666;SDS011;15074;50.940;5.282;2023-04-12T06:16:18;2.15;;;0.70;;
27666;SDS011;15074;50.940;5.282;2023-04-12T06:18:43;2.35;;;0.60;;
27666;SDS011;15074;50.940;5.282;2023-04-12T06:21:09;2.42;;;0.60;;
27666;SDS011;15074;50.940;5.282;2023-04-12T06:23:35;0.95;;;0.50;;
27666;SDS011;15074;50.940;5.282;2023-04-12T06:26:00;0.85;;;0.43;;
27666;SDS011;15074;50.940;5.282;2023-04-12T06:28:26;0.95;;;0.60;;
27666;SDS011;15074;50.940;5.282;2023-04-12T06:30:52;1.23;;;0.40;;
27666;SDS011;15074;50.940;5.282;2023-04-12T06:33:18;1.83;;;1.70;;
27666;SDS011;15074;50.940;5.282;2023-04-12T06:38:12;1.55;;;0.60;;
27666;SDS011;15074;50.940;5.282;2023-04-12T06:40:38;0.60;;;0.50;;
27666;SDS011;15074;50.940;5.282;2023-04-12T06:43:03;2.13;;;0.70;;
27666;SDS011;15074;50.940;5.282;2023-04-12T06:45:29;0.65;;;0.60;;
27666;SDS011;15074;50.940;5.282;2023-04-12T06:47:55;1.60;;;0.60;;
27666;SDS011;15074;50.940;5.282;2023-04-12T06:50:21;1.58;;;0.70;;
27666;SDS011;15074;50.940;5.282;2023-04-12T06:52:47;1.08;;;0.60;;
27666;SDS011;15074;50.940;5.282;2023-04-12T06:55:13;0.88;;;0.88;;
27666;SDS011;15074;50.940;5.282;2023-04-12T06:57:42;1.60;;;0.70;;
27666;SDS011;15074;50.940;5.282;2023-04-12T07:00:09;1.00;;;0.70;;
27666;SDS011;15074;50.940;5.282;2023-04-12T07:02:35;1.20;;;0.70;;
27666;SDS011;15074;50.940;5.282;2023-04-12T07:05:02;1.83;;;1.08;;
27666;SDS011;15074;50.940;5.282;2023-04-12T07:07:28;1.58;;;0.80;;
27666;SDS011;15074;50.940;5.282;2023-04-12T07:09:54;1.73;;;0.88;;
27666;SDS011;15074;50.940;5.282;2023-04-12T07:12:20;0.93;;;0.70;;
27666;SDS011;15074;50.940;5.282;2023-04-12T07:14:46;1.55;;;0.80;;
27666;SDS011;15074;50.940;5.282;2023-04-12T07:17:12;2.30;;;0.77;;
27666;SDS011;15074;50.940;5.282;2023-04-12T07:19:38;3.33;;;1.50;;
27666;SDS011;15074;50.940;5.282;2023-04-12T07:22:05;2.17;;;1.00;;
27666;SDS011;15074;50.940;5.282;2023-04-12T07:24:31;3.30;;;1.00;;
27666;SDS011;15074;50.940;5.282;2023-04-12T07:26:57;3.22;;;1.00;;
27666;SDS011;15074;50.940;5.282;2023-04-12T07:29:23;2.17;;;0.93;;
27666;SDS011;15074;50.940;5.282;2023-04-12T07:31:49;2.92;;;0.80;;
27666;SDS011;15074;50.940;5.282;2023-04-12T07:34:16;2.35;;;0.82;;
27666;SDS011;15074;50.940;5.282;2023-04-12T07:36:41;1.10;;;0.57;;
27666;SDS011;15074;50.940;5.282;2023-04-12T07:41:36;3.47;;;0.70;;
27666;SDS011;15074;50.940;5.282;2023-04-12T07:44:03;4.50;;;1.00;;
27666;SDS011;15074;50.940;5.282;2023-04-12T07:46:29;1.33;;;0.80;;
27666;SDS011;15074;50.940;5.282;2023-04-12T07:48:54;3.50;;;1.10;;
27666;SDS011;15074;50.940;5.282;2023-04-12T07:51:20;2.05;;;0.98;;
27666;SDS011;15074;50.940;5.282;2023-04-12T07:53:46;2.08;;;1.08;;
27666;SDS011;15074;50.940;5.282;2023-04-12T07:56:12;2.95;;;1.30;;
27666;SDS011;15074;50.940;5.282;2023-04-12T07:58:39;3.05;;;1.30;;
27666;SDS011;15074;50.940;5.282;2023-04-12T08:01:05;2.95;;;1.50;;
27666;SDS011;15074;50.940;5.282;2023-04-12T08:03:31;2.03;;;1.10;;
27666;SDS011;15074;50.940;5.282;2023-04-12T08:05:57;4.97;;;1.40;;
27666;SDS011;15074;50.940;5.282;2023-04-12T08:08:23;2.92;;;1.20;;
27666;SDS011;15074;50.940;5.282;2023-04-12T08:10:49;3.45;;;1.20;;
27666;SDS011;15074;50.940;5.282;2023-04-12T08:13:16;3.25;;;2.05;;
27666;SDS011;15074;50.940;5.282;2023-04-12T08:15:42;3.50;;;1.30;;
27666;SDS011;15074;50.940;5.282;2023-04-12T08:18:08;3.88;;;1.27;;
27666;SDS011;15074;50.940;5.282;2023-04-12T08:20:34;3.30;;;1.08;;
27666;SDS011;15074;50.940;5.282;2023-04-12T08:23:00;2.45;;;1.00;;
27666;SDS011;15074;50.940;5.282;2023-04-12T08:25:26;5.35;;;1.52;;
27666;SDS011;15074;50.940;5.282;2023-04-12T08:27:51;3.30;;;1.42;;
27666;SDS011;15074;50.940;5.282;2023-04-12T08:30:17;3.15;;;2.00;;
27666;SDS011;15074;50.940;5.282;2023-04-12T08:32:43;5.15;;;1.38;;
27666;SDS011;15074;50.940;5.282;2023-04-12T08:35:09;4.55;;;1.55;;
27666;SDS011;15074;50.940;5.282;2023-04-12T08:37:36;3.72;;;1.80;;
27666;SDS011;15074;50.940;5.282;2023-04-12T08:40:02;4.85;;;1.17;;
27666;SDS011;15074;50.940;5.282;2023-04-12T08:42:30;5.55;;;1.33;;
27666;SDS011;15074;50.940;5.282;2023-04-12T08:44:58;6.07;;;1.30;;
27666;SDS011;15074;50.940;5.282;2023-04-12T08:47:29;5.47;;;1.58;;
27666;SDS011;15074;50.940;5.282;2023-04-12T08:49:56;3.28;;;1.30;;
27666;SDS011;15074;50.940;5.282;2023-04-12T08:52:22;5.82;;;1.10;;
27666;SDS011;15074;50.940;5.282;2023-04-12T08:54:47;4.95;;;1.20;;
27666;SDS011;15074;50.940;5.282;2023-04-12T08:57:13;3.92;;;0.90;;
27666;SDS011;15074;50.940;5.282;2023-04-12T08:59:42;3.92;;;1.20;;
27666;SDS011;15074;50.940;5.282;2023-04-12T09:02:09;4.60;;;1.30;;
27666;SDS011;15074;50.940;5.282;2023-04-12T09:04:48;9.05;;;2.10;;
27666;SDS011;15074;50.940;5.282;2023-04-12T09:07:15;5.72;;;1.50;;
27666;SDS011;15074;50.940;5.282;2023-04-12T09:09:41;7.43;;;2.85;;
27666;SDS011;15074;50.940;5.282;2023-04-12T09:12:12;3.63;;;1.10;;
27666;SDS011;15074;50.940;5.282;2023-04-12T09:14:39;8.38;;;1.55;;
27666;SDS011;15074;50.940;5.282;2023-04-12T09:17:24;6.20;;;1.30;;
27666;SDS011;15074;50.940;5.282;2023-04-12T09:19:51;5.50;;;1.52;;
27666;SDS011;15074;50.940;5.282;2023-04-12T09:22:36;5.10;;;1.35;;
27666;SDS011;15074;50.940;5.282;2023-04-12T09:25:04;5.57;;;1.30;;
27666;SDS011;15074;50.940;5.282;2023-04-12T09:27:44;5.07;;;1.33;;
27666;SDS011;15074;50.940;5.282;2023-04-12T09:30:14;4.65;;;1.30;;
27666;SDS011;15074;50.940;5.282;2023-04-12T09:32:41;6.20;;;1.83;;
27666;SDS011;15074;50.940;5.282;2023-04-12T09:35:07;5.18;;;1.58;;
27666;SDS011;15074;50.940;5.282;2023-04-12T09:37:33;7.10;;;1.20;;
27666;SDS011;15074;50.940;5.282;2023-04-12T09:40:06;7.70;;;1.42;;
27666;SDS011;15074;50.940;5.282;2023-04-12T09:42:34;6.50;;;1.75;;
27666;SDS011;15074;50.940;5.282;2023-04-12T09:45:02;6.45;;;1.65;;
27666;SDS011;15074;50.940;5.282;2023-04-12T09:47:47;5.50;;;1.48;;
27666;SDS011;15074;50.940;5.282;2023-04-12T09:50:23;6.80;;;1.40;;
27666;SDS011;15074;50.940;5.282;2023-04-12T09:52:52;10.88;;;1.90;;
27666;SDS011;15074;50.940;5.282;2023-04-12T09:55:20;10.35;;;2.25;;
27666;SDS011;15074;50.940;5.282;2023-04-12T09:57:48;6.57;;;1.50;;
27666;SDS011;15074;50.940;5.282;2023-04-12T10:00:15;5.45;;;1.42;;
27666;SDS011;15074;50.940;5.282;2023-04-12T10:02:42;9.77;;;1.90;;
27666;SDS011;15074;50.940;5.282;2023-04-12T10:05:09;7.80;;;2.30;;
27666;SDS011;15074;50.940;5.282;2023-04-12T10:07:39;14.02;;;2.00;;
27666;SDS011;15074;50.940;5.282;2023-04-12T10:10:08;13.10;;;2.05;;
27666;SDS011;15074;50.940;5.282;2023-04-12T10:12:36;7.05;;;1.80;;
27666;SDS011;15074;50.940;5.282;2023-04-12T10:15:04;4.90;;;1.70;;
27666;SDS011;15074;50.940;5.282;2023-04-12T10:17:44;18.30;;;2.65;;
27666;SDS011;15074;50.940;5.282;2023-04-12T10:20:16;11.32;;;2.50;;
27666;SDS011;15074;50.940;5.282;2023-04-12T10:22:50;10.35;;;2.00;;
27666;SDS011;15074;50.940;5.282;2023-04-12T10:25:17;12.43;;;2.00;;
27666;SDS011;15074;50.940;5.282;2023-04-12T10:27:45;10.88;;;2.80;;
27666;SDS011;15074;50.940;5.282;2023-04-12T10:30:19;8.13;;;2.33;;
27666;SDS011;15074;50.940;5.282;2023-04-12T10:32:49;4.55;;;1.95;;
27666;SDS011;15074;50.940;5.282;2023-04-12T10:36:16;7.82;;;1.67;;
27666;SDS011;15074;50.940;5.282;2023-04-12T10:38:25;8.05;;;1.70;;
27666;SDS011;15074;50.940;5.282;2023-04-12T10:43:36;9.82;;;2.47;;
27666;SDS011;15074;50.940;5.282;2023-04-12T10:46:02;8.30;;;1.58;;
27666;SDS011;15074;50.940;5.282;2023-04-12T10:48:49;9.77;;;1.70;;
27666;SDS011;15074;50.940;5.282;2023-04-12T10:51:19;6.90;;;1.55;;
27666;SDS011;15074;50.940;5.282;2023-04-12T10:53:54;12.13;;;1.63;;
27666;SDS011;15074;50.940;5.282;2023-04-12T10:56:44;10.57;;;1.65;;
27666;SDS011;15074;50.940;5.282;2023-04-12T10:59:11;8.02;;;2.58;;
27666;SDS011;15074;50.940;5.282;2023-04-12T11:01:38;9.07;;;2.00;;
27666;SDS011;15074;50.940;5.282;2023-04-12T11:04:18;6.50;;;1.63;;
27666;SDS011;15074;50.940;5.282;2023-04-12T11:06:46;7.68;;;1.92;;
27666;SDS011;15074;50.940;5.282;2023-04-12T11:09:21;6.20;;;1.52;;
27666;SDS011;15074;50.940;5.282;2023-04-12T11:11:50;8.07;;;1.90;;
27666;SDS011;15074;50.940;5.282;2023-04-12T11:14:28;10.43;;;1.70;;
27666;SDS011;15074;50.940;5.282;2023-04-12T11:19:47;9.73;;;2.00;;
27666;SDS011;15074;50.940;5.282;2023-04-12T11:22:20;6.18;;;1.58;;
27666;SDS011;15074;50.940;5.282;2023-04-12T11:24:48;5.68;;;1.70;;
27666;SDS011;15074;50.940;5.282;2023-04-12T11:27:17;5.70;;;1.40;;
27666;SDS011;15074;50.940;5.282;2023-04-12T11:29:46;9.13;;;2.15;;
27666;SDS011;15074;50.940;5.282;2023-04-12T11:32:17;8.90;;;1.83;;
27666;SDS011;15074;50.940;5.282;2023-04-12T11:34:43;9.65;;;2.53;;
27666;SDS011;15074;50.940;5.282;2023-04-12T11:37:11;10.52;;;2.00;;
27666;SDS011;15074;50.940;5.282;2023-04-12T11:39:38;9.20;;;4.03;;
27666;SDS011;15074;50.940;5.282;2023-04-12T11:44:33;6.80;;;3.60;;
27666;SDS011;15074;50.940;5.282;2023-04-12T11:46:59;10.73;;;3.22;;
27666;SDS011;15074;50.940;5.282;2023-04-12T11:49:25;4.70;;;1.48;;
27666;SDS011;15074;50.940;5.282;2023-04-12T11:52:01;7.93;;;2.50;;
27666;SDS011;15074;50.940;5.282;2023-04-12T11:54:28;6.70;;;2.28;;
27666;SDS011;15074;50.940;5.282;2023-04-12T11:56:57;10.20;;;5.22;;
27666;SDS011;15074;50.940;5.282;2023-04-12T11:59:34;6.18;;;2.47;;
27666;SDS011;15074;50.940;5.282;2023-04-12T12:02:00;3.90;;;1.85;;
27666;SDS011;15074;50.940;5.282;2023-04-12T12:04:29;10.10;;;3.47;;
27666;SDS011;15074;50.940;5.282;2023-04-12T12:06:58;6.03;;;2.00;;
27666;SDS011;15074;50.940;5.282;2023-04-12T12:09:25;6.75;;;1.83;;
27666;SDS011;15074;50.940;5.282;2023-04-12T12:11:57;5.22;;;1.67;;
27666;SDS011;15074;50.940;5.282;2023-04-12T12:14:23;7.00;;;2.60;;
27666;SDS011;15074;50.940;5.282;2023-04-12T12:19:32;5.97;;;1.10;;
27666;SDS011;15074;50.940;5.282;2023-04-12T12:22:04;4.72;;;1.40;;
27666;SDS011;15074;50.940;5.282;2023-04-12T12:24:30;5.70;;;1.75;;
27666;SDS011;15074;50.940;5.282;2023-04-12T12:26:59;4.25;;;1.20;;
27666;SDS011;15074;50.940;5.282;2023-04-12T12:29:26;8.52;;;1.63;;
27666;SDS011;15074;50.940;5.282;2023-04-12T12:31:59;6.97;;;1.55;;
27666;SDS011;15074;50.940;5.282;2023-04-12T12:34:29;5.10;;;1.67;;
27666;SDS011;15074;50.940;5.282;2023-04-12T12:36:57;4.68;;;1.20;;
27666;SDS011;15074;50.940;5.282;2023-04-12T12:39:23;5.95;;;1.40;;
27666;SDS011;15074;50.940;5.282;2023-04-12T12:41:52;3.90;;;1.50;;
27666;SDS011;15074;50.940;5.282;2023-04-12T12:44:22;4.35;;;1.17;;
27666;SDS011;15074;50.940;5.282;2023-04-12T12:46:48;5.30;;;1.00;;
27666;SDS011;15074;50.940;5.282;2023-04-12T12:49:15;5.30;;;1.23;;
27666;SDS011;15074;50.940;5.282;2023-04-12T12:51:41;4.30;;;0.95;;
27666;SDS011;15074;50.940;5.282;2023-04-12T12:54:07;7.28;;;1.17;;
27666;SDS011;15074;50.940;5.282;2023-04-12T12:56:33;2.70;;;0.60;;
27666;SDS011;15074;50.940;5.282;2023-04-12T12:59:01;1.58;;;0.60;;
27666;SDS011;15074;50.940;5.282;2023-04-12T13:01:27;0.55;;;0.22;;
27666;SDS011;15074;50.940;5.282;2023-04-12T13:03:52;3.15;;;0.50;;
27666;SDS011;15074;50.940;5.282;2023-04-12T13:06:18;3.40;;;3.13;;
27666;SDS011;15074;50.940;5.282;2023-04-12T13:08:44;1.23;;;0.30;;
27666;SDS011;15074;50.940;5.282;2023-04-12T13:11:10;1.30;;;0.30;;
27666;SDS011;15074;50.940;5.282;2023-04-12T13:13:36;0.85;;;0.20;;
27666;SDS011;15074;50.940;5.282;2023-04-12T13:16:02;0.68;;;0.45;;
27666;SDS011;15074;50.940;5.282;2023-04-12T13:18:28;0.68;;;0.38;;
27666;SDS011;15074;50.940;5.282;2023-04-12T13:20:53;0.32;;;0.20;;
27666;SDS011;15074;50.940;5.282;2023-04-12T13:23:19;0.30;;;0.20;;
27666;SDS011;15074;50.940;5.282;2023-04-12T13:25:44;1.15;;;0.20;;
27666;SDS011;15074;50.940;5.282;2023-04-12T13:28:10;2.40;;;0.32;;
27666;SDS011;15074;50.940;5.282;2023-04-12T13:30:36;0.63;;;0.30;;
27666;SDS011;15074;50.940;5.282;2023-04-12T13:33:02;0.35;;;0.20;;
27666;SDS011;15074;50.940;5.282;2023-04-12T13:35:28;0.68;;;0.20;;
27666;SDS011;15074;50.940;5.282;2023-04-12T13:37:53;1.67;;;0.50;;
27666;SDS011;15074;50.940;5.282;2023-04-12T13:40:19;1.80;;;0.40;;
27666;SDS011;15074;50.940;5.282;2023-04-12T13:45:13;1.90;;;0.47;;
27666;SDS011;15074;50.940;5.282;2023-04-12T13:47:39;2.22;;;0.93;;
27666;SDS011;15074;50.940;5.282;2023-04-12T13:50:05;0.82;;;0.30;;
27666;SDS011;15074;50.940;5.282;2023-04-12T13:52:31;1.20;;;0.43;;
27666;SDS011;15074;50.940;5.282;2023-04-12T13:54:57;1.52;;;0.30;;
27666;SDS011;15074;50.940;5.282;2023-04-12T13:57:23;1.33;;;0.30;;
27666;SDS011;15074;50.940;5.282;2023-04-12T13:59:49;0.57;;;0.45;;
27666;SDS011;15074;50.940;5.282;2023-04-12T14:02:15;1.20;;;0.38;;
27666;SDS011;15074;50.940;5.282;2023-04-12T14:04:51;0.55;;;0.20;;
27666;SDS011;15074;50.940;5.282;2023-04-12T14:07:18;2.03;;;0.30;;
27666;SDS011;15074;50.940;5.282;2023-04-12T14:09:44;0.90;;;0.13;;
27666;SDS011;15074;50.940;5.282;2023-04-12T14:12:12;0.25;;;0.20;;
27666;SDS011;15074;50.940;5.282;2023-04-12T14:14:38;0.35;;;0.20;;
27666;SDS011;15074;50.940;5.282;2023-04-12T14:17:04;1.20;;;0.30;;
27666;SDS011;15074;50.940;5.282;2023-04-12T14:19:30;0.70;;;0.22;;
27666;SDS011;15074;50.940;5.282;2023-04-12T14:21:55;0.88;;;0.32;;
27666;SDS011;15074;50.940;5.282;2023-04-12T14:24:21;0.95;;;0.45;;
27666;SDS011;15074;50.940;5.282;2023-04-12T14:26:47;0.50;;;0.30;;
27666;SDS011;15074;50.940;5.282;2023-04-12T14:29:15;1.80;;;0.30;;
27666;SDS011;15074;50.940;5.282;2023-04-12T14:31:41;1.08;;;0.38;;
27666;SDS011;15074;50.940;5.282;2023-04-12T14:34:07;1.20;;;0.55;;
27666;SDS011;15074;50.940;5.282;2023-04-12T14:36:34;2.03;;;0.30;;
27666;SDS011;15074;50.940;5.282;2023-04-12T14:39:00;1.15;;;0.40;;
27666;SDS011;15074;50.940;5.282;2023-04-12T14:41:28;1.50;;;0.40;;
27666;SDS011;15074;50.940;5.282;2023-04-12T14:43:54;0.80;;;0.30;;
27666;SDS011;15074;50.940;5.282;2023-04-12T14:46:20;1.38;;;0.55;;
27666;SDS011;15074;50.940;5.282;2023-04-12T14:48:47;0.63;;;0.45;;
27666;SDS011;15074;50.940;5.282;2023-04-12T14:51:13;1.92;;;1.15;;
27666;SDS011;15074;50.940;5.282;2023-04-12T14:53:39;2.08;;;0.38;;
27666;SDS011;15074;50.940;5.282;2023-04-12T14:56:15;0.75;;;0.30;;
27666;SDS011;15074;50.940;5.282;2023-04-12T14:58:43;0.50;;;0.20;;
27666;SDS011;15074;50.940;5.282;2023-04-12T15:01:10;2.72;;;0.25;;
27666;SDS011;15074;50.940;5.282;2023-04-12T15:03:36;0.50;;;0.30;;
27666;SDS011;15074;50.940;5.282;2023-04-12T15:06:03;0.52;;;0.30;;
27666;SDS011;15074;50.940;5.282;2023-04-12T15:08:31;0.63;;;0.40;;
27666;SDS011;15074;50.940;5.282;2023-04-12T15:10:59;0.50;;;0.30;;
27666;SDS011;15074;50.940;5.282;2023-04-12T15:13:24;0.63;;;0.30;;
27666;SDS011;15074;50.940;5.282;2023-04-12T15:15:51;0.40;;;0.40;;
27666;SDS011;15074;50.940;5.282;2023-04-12T15:18:17;1.17;;;1.00;;
27666;SDS011;15074;50.940;5.282;2023-04-12T15:20:43;0.98;;;0.40;;
27666;SDS011;15074;50.940;5.282;2023-04-12T15:23:08;0.60;;;0.40;;
27666;SDS011;15074;50.940;5.282;2023-04-12T15:25:36;0.30;;;0.30;;
27666;SDS011;15074;50.940;5.282;2023-04-12T15:28:01;1.27;;;0.40;;
27666;SDS011;15074;50.940;5.282;2023-04-12T15:30:27;0.50;;;0.50;;
27666;SDS011;15074;50.940;5.282;2023-04-12T15:32:53;0.60;;;0.30;;